createdAt,value
2022-11-05T00:01:59.206Z,94828.34
2022-11-05T00:07:26.876Z,94817.19
2022-11-05T00:12:47.719Z,94820.19
2022-11-05T00:17:49.700Z,94828.28
2022-11-05T00:23:10.461Z,94819.16
2022-11-05T00:28:12.446Z,94826.38
2022-11-05T00:33:14.942Z,94817.59
2022-11-05T00:38:16.869Z,94818.75
2022-11-05T00:43:37.673Z,94814.75
2022-11-05T00:48:58.210Z,94806.94
2022-11-05T00:54:00.782Z,94811.94
2022-11-05T00:59:03.017Z,94821.91
2022-11-05T01:04:05.403Z,94807.38
2022-11-05T01:09:07.367Z,94811.41
2022-11-05T01:14:12.150Z,94813.41
2022-11-05T01:19:14.075Z,94815.31
2022-11-05T01:24:15.963Z,94806.00
2022-11-05T01:29:18.049Z,94800.97
2022-11-05T01:34:19.899Z,94802.28
2022-11-05T01:39:21.786Z,94810.38
2022-11-05T01:44:56.180Z,94815.72
2022-11-05T01:50:00.590Z,94798.91
2022-11-05T01:55:03.571Z,94810.97
2022-11-05T02:00:06.683Z,94799.81
2022-11-05T02:05:15.410Z,94806.25
2022-11-05T02:10:20.419Z,94823.72
2022-11-05T02:15:36.817Z,94809.31
2022-11-05T02:20:53.512Z,94810.66
2022-11-05T02:26:23.114Z,94809.03
2022-11-05T02:31:36.934Z,94788.09
2022-11-05T02:36:55.717Z,94778.84
2022-11-05T02:42:15.466Z,94803.78
2022-11-05T02:47:43.427Z,94797.44
2022-11-05T02:53:07.627Z,94796.97
2022-11-05T02:58:09.746Z,94794.84
2022-11-05T03:03:30.169Z,94787.31
2022-11-05T03:08:47.234Z,94786.22
2022-11-05T03:14:16.476Z,94784.59
2022-11-05T03:19:28.032Z,94782.84
2022-11-05T03:24:33.552Z,94780.00
2022-11-05T03:29:39.611Z,94787.91
2022-11-05T03:34:50.482Z,94781.09
2022-11-05T03:39:55.321Z,94777.78
2022-11-05T03:44:59.184Z,94780.66
2022-11-05T03:50:22.173Z,94782.84
2022-11-05T03:55:27.928Z,94790.59
2022-11-05T04:00:29.910Z,94789.06
2022-11-05T04:05:31.987Z,94783.63
2022-11-05T04:10:52.584Z,94780.25
2022-11-05T04:16:14.517Z,94790.38
2022-11-05T04:21:35.581Z,94771.38
2022-11-05T04:26:40.079Z,94796.16
2022-11-05T04:31:42.161Z,94798.09
2022-11-05T04:36:43.951Z,94789.84
2022-11-05T04:41:48.309Z,94791.13
2022-11-05T04:46:50.146Z,94782.91
2022-11-05T04:51:51.943Z,94783.97
2022-11-05T04:56:53.775Z,94784.75
2022-11-05T05:01:55.834Z,94783.44
2022-11-05T05:06:57.749Z,94788.81
2022-11-05T05:11:59.635Z,94800.22
2022-11-05T05:17:01.511Z,94796.44
2022-11-05T05:22:03.456Z,94801.44
2022-11-05T05:27:05.411Z,94802.03
2022-11-05T05:32:07.506Z,94795.16
2022-11-05T05:37:10.614Z,94783.28
2022-11-05T05:42:13.157Z,94784.03
2022-11-05T05:47:15.016Z,94796.75
2022-11-05T05:52:16.869Z,94797.06
2022-11-05T05:57:18.730Z,94798.97
2022-11-05T06:02:20.786Z,94791.59
2022-11-05T06:07:22.880Z,94790.81
2022-11-05T06:12:24.679Z,94789.19
2022-11-05T06:17:26.525Z,94790.31
2022-11-05T06:22:28.418Z,94788.22
2022-11-05T06:27:30.336Z,94791.13
2022-11-05T06:32:32.247Z,94782.88
2022-11-05T06:37:34.263Z,94783.19
2022-11-05T06:42:36.246Z,94786.63
2022-11-05T06:47:38.358Z,94776.34
2022-11-05T06:52:41.381Z,94783.22
2022-11-05T06:57:43.331Z,94781.84
2022-11-05T07:02:45.707Z,94775.25
2022-11-05T07:07:47.670Z,94790.31
2022-11-05T07:12:49.506Z,94779.25
2022-11-05T07:17:51.344Z,94780.34
2022-11-05T07:23:01.776Z,94792.16
2022-11-05T07:28:04.518Z,94782.44
2022-11-05T07:33:06.608Z,94795.59
2022-11-05T07:38:08.651Z,94808.72
2022-11-05T07:43:10.797Z,94812.69
2022-11-05T07:48:12.760Z,94820.84
2022-11-05T07:53:15.204Z,94829.78
2022-11-05T07:58:27.065Z,94823.44
2022-11-05T08:03:29.222Z,94820.50
2022-11-05T08:08:31.251Z,94831.22
2022-11-05T08:13:33.946Z,94839.03
2022-11-05T08:18:36.111Z,94837.91
2022-11-05T08:23:39.428Z,94855.75
2022-11-05T08:28:41.284Z,94867.53
2022-11-05T08:33:43.151Z,94849.91
2022-11-05T08:38:45.051Z,94856.63
2022-11-05T08:43:46.931Z,94861.06
2022-11-05T08:48:48.864Z,94847.72
2022-11-05T08:53:50.722Z,94848.47
2022-11-05T08:58:52.687Z,94851.59
2022-11-05T09:03:54.601Z,94853.34
2022-11-05T09:08:56.777Z,94846.81
2022-11-05T09:13:58.633Z,94847.59
2022-11-05T09:19:02.374Z,94847.69
2022-11-05T09:24:04.636Z,94842.38
2022-11-05T09:29:09.235Z,94834.91
2022-11-05T09:34:15.490Z,94820.78
2022-11-05T09:39:17.355Z,94823.63
2022-11-05T09:44:23.067Z,94817.41
2022-11-05T09:49:29.416Z,94807.56
2022-11-05T09:54:32.155Z,94812.53
2022-11-05T09:59:40.871Z,94806.47
2022-11-05T10:04:50.141Z,94808.03
2022-11-05T10:09:56.054Z,94801.16
2022-11-05T10:15:13.263Z,94795.53
2022-11-05T10:20:23.728Z,94787.72
2022-11-05T10:25:30.223Z,94784.84
2022-11-05T10:30:32.377Z,94774.72
2022-11-05T10:35:36.163Z,94777.97
2022-11-05T10:41:04.381Z,94776.22
2022-11-05T10:46:06.415Z,94778.38
2022-11-05T10:51:08.940Z,94779.19
2022-11-05T10:56:31.390Z,94778.19
2022-11-05T11:01:33.579Z,94778.38
2022-11-05T11:06:38.071Z,94772.28
2022-11-05T11:11:42.666Z,94768.19
2022-11-05T11:16:46.634Z,94765.88
2022-11-05T11:22:09.504Z,94757.25
2022-11-05T11:27:16.568Z,94742.47
2022-11-05T11:32:20.616Z,94745.00
2022-11-05T11:37:34.390Z,94737.19
2022-11-05T11:42:40.477Z,94731.22
2022-11-05T11:47:46.357Z,94742.78
2022-11-05T11:52:48.247Z,94735.34
2022-11-05T11:57:53.736Z,94725.84
2022-11-05T12:03:17.152Z,94717.84
2022-11-05T12:08:36.180Z,94711.09
2022-11-05T12:13:52.830Z,94709.44
2022-11-05T12:19:06.817Z,94701.16
2022-11-05T12:24:24.150Z,94689.53
2022-11-05T12:29:42.669Z,94692.94
2022-11-05T12:34:47.752Z,94685.94
2022-11-05T12:39:52.258Z,94685.19
2022-11-05T12:44:54.097Z,94682.31
2022-11-05T12:50:17.024Z,94679.38
2022-11-05T12:55:34.011Z,94667.00
2022-11-05T13:00:37.263Z,94650.81
2022-11-05T13:05:46.436Z,94651.91
2022-11-05T13:11:12.163Z,94630.78
2022-11-05T13:16:23.030Z,94640.63
2022-11-05T13:21:28.599Z,94625.63
2022-11-05T13:26:50.534Z,94626.31
2022-11-05T13:31:58.891Z,94610.28
2022-11-05T13:37:22.665Z,94589.38
2022-11-05T13:42:39.475Z,94589.22
2022-11-05T13:47:59.620Z,94577.81
2022-11-05T13:53:13.740Z,94577.47
2022-11-05T13:58:31.053Z,94568.06
2022-11-05T14:03:33.166Z,94562.78
2022-11-05T14:08:43.364Z,94564.13
2022-11-05T14:13:46.003Z,94565.81
2022-11-05T14:19:14.931Z,94550.72
2022-11-05T14:24:23.024Z,94546.47
2022-11-05T14:29:25.103Z,94540.09
2022-11-05T14:34:47.379Z,94542.66
2022-11-05T14:39:49.423Z,94534.38
2022-11-05T14:45:20.562Z,94538.09
2022-11-05T14:50:28.006Z,94529.56
2022-11-05T14:55:33.490Z,94521.09
2022-11-05T15:00:36.887Z,94514.81
2022-11-05T15:05:50.379Z,94506.81
2022-11-05T15:10:54.883Z,94520.19
2022-11-05T15:15:56.958Z,94514.81
2022-11-05T15:21:01.492Z,94522.34
2022-11-05T15:26:06.269Z,94520.41
2022-11-05T15:31:13.998Z,94521.97
2022-11-05T15:36:29.809Z,94512.34
2022-11-05T15:41:34.498Z,94504.34
2022-11-05T15:46:36.824Z,94498.28
2022-11-05T15:51:38.785Z,94501.06
2022-11-05T15:56:48.418Z,94500.28
2022-11-05T16:01:54.121Z,94496.38
2022-11-05T16:07:10.423Z,94500.09
2022-11-05T16:12:18.847Z,94506.19
2022-11-05T16:17:23.368Z,94516.94
2022-11-05T16:22:25.705Z,94521.47
2022-11-05T16:27:27.876Z,94518.06
2022-11-05T16:32:31.563Z,94513.03
2022-11-05T16:37:41.359Z,94518.47
2022-11-05T16:42:43.950Z,94525.84
2022-11-05T16:47:46.584Z,94524.69
2022-11-05T16:52:48.673Z,94531.38
2022-11-05T16:57:53.656Z,94531.34
2022-11-05T17:02:55.860Z,94531.44
2022-11-05T17:07:58.346Z,94532.19
2022-11-05T17:13:00.379Z,94534.16
2022-11-05T17:18:03.637Z,94546.38
2022-11-05T17:23:06.250Z,94538.09
2022-11-05T17:28:09.353Z,94543.69
2022-11-05T17:33:12.825Z,94546.53
2022-11-05T17:38:15.262Z,94555.41
2022-11-05T17:43:17.693Z,94565.06
2022-11-05T17:48:20.615Z,94545.28
2022-11-05T17:53:22.692Z,94554.00
2022-11-05T17:58:24.762Z,94569.13
2022-11-05T18:03:26.745Z,94565.25
2022-11-05T18:08:28.903Z,94566.25
2022-11-05T18:13:30.794Z,94573.84
2022-11-05T18:18:32.813Z,94558.78
2022-11-05T18:23:34.662Z,94566.34
2022-11-05T18:28:36.862Z,94571.22
2022-11-05T18:33:38.697Z,94568.28
2022-11-05T18:38:40.823Z,94569.09
2022-11-05T18:43:43.094Z,94567.38
2022-11-05T18:48:45.223Z,94569.44
2022-11-05T18:53:47.351Z,94577.78
2022-11-05T18:58:50.580Z,94579.47
2022-11-05T19:03:54.590Z,94569.28
2022-11-05T19:08:57.368Z,94587.19
2022-11-05T19:14:00.400Z,94576.06
2022-11-05T19:19:04.302Z,94585.47
2022-11-05T19:24:06.487Z,94582.03
2022-11-05T19:29:08.406Z,94586.13
2022-11-05T19:34:10.760Z,94589.88
2022-11-05T19:39:14.702Z,94590.66
2022-11-05T19:44:16.637Z,94587.38
2022-11-05T19:49:18.579Z,94585.94
2022-11-05T19:54:20.849Z,94599.44
2022-11-05T19:59:22.860Z,94601.94
2022-11-05T20:04:24.967Z,94582.31
2022-11-05T20:09:26.877Z,94605.72
2022-11-05T20:14:29.779Z,94600.69
2022-11-05T20:19:31.898Z,94603.59
2022-11-05T20:24:33.832Z,94593.25
2022-11-05T20:29:36.098Z,94610.81
2022-11-05T20:34:38.581Z,94596.19
2022-11-05T20:39:41.084Z,94611.41
2022-11-05T20:44:43.834Z,94603.50
2022-11-05T20:49:45.757Z,94618.88
2022-11-05T20:54:48.271Z,94609.13
2022-11-05T20:59:50.247Z,94605.50
2022-11-05T21:04:52.237Z,94594.50
2022-11-05T21:09:54.122Z,94599.31
2022-11-05T21:14:56.353Z,94604.16
2022-11-05T21:19:58.350Z,94600.06
2022-11-05T21:25:00.656Z,94594.56
2022-11-05T21:30:03.638Z,94603.16
2022-11-05T21:35:05.823Z,94587.91
2022-11-05T21:40:08.503Z,94596.06
2022-11-05T21:45:11.124Z,94589.16
2022-11-05T21:50:17.076Z,94597.56
2022-11-05T21:55:40.274Z,94605.38
2022-11-05T22:00:42.241Z,94596.69
2022-11-05T22:05:44.581Z,94596.78
2022-11-05T22:10:47.737Z,94598.06
2022-11-05T22:15:56.635Z,94586.34
2022-11-05T22:20:58.459Z,94593.63
2022-11-05T22:26:01.793Z,94591.41
2022-11-05T22:31:03.762Z,94588.78
2022-11-05T22:36:06.048Z,94593.50
2022-11-05T22:41:13.357Z,94594.41
2022-11-05T22:46:18.265Z,94592.94
2022-11-05T22:51:21.353Z,94597.06
2022-11-05T22:56:26.692Z,94585.56
2022-11-05T23:01:29.083Z,94593.06
2022-11-05T23:06:51.241Z,94574.56
2022-11-05T23:11:53.918Z,94572.69
2022-11-05T23:17:14.409Z,94568.41
2022-11-05T23:22:39.362Z,94558.06
2022-11-05T23:27:41.704Z,94559.44
2022-11-05T23:32:43.992Z,94541.53
2022-11-05T23:38:04.709Z,94535.25
2022-11-05T23:43:25.586Z,94533.19
2022-11-05T23:48:36.991Z,94543.72
2022-11-05T23:53:40.583Z,94542.44
2022-11-05T23:58:43.001Z,94542.38
